Cadillac, MI

10:39 AM EST on November 22, 2014 (GMT -0500)
Wexford County | Change Station
CLOSE
Current Station
Airport
Location: Cadillac,
Elevation: 1306 ft
Nearby Weather Stations
Active Advisory: Freezing Rain Advisory Active Notice: Record Report

Elev 1306 ft 44.28 °N, 85.42 °W | Updated 5 minutes ago

Fog
Fog
33 °F
Feels Like 23 °F
N
16
Wind Variable Wind from SSW
Gusts 21 mph

Today
High -- | Low -- °F
--% Chance of Precip.
Yesterday
High -- | Low -- °F
Precip. -- in
7:46 AM 5:08 PM
New Moon, 0% visible
Pressure 29.88 in
Visibility 1.2 miles
Clouds Overcast 300 ft
Windchill 23 °F
Dew Point 32 °F
Humidity 98%
Rainfall 0.00 in
Snow Depth Not available.
UV 0 out of 12
Pollen .10 out of 12
Air Quality Not available.
Flu Activity Not available.
METAR KCAD 221534Z AUTO 21014G18KT 1 1/4SM BR OVC003 00/00 A2988 RMK AO2 T00060003

More Conditions Fewer Conditions

Pressure 29.88 in
Visibility 1.2 miles
Clouds Overcast 300 ft
Windchill 23 °F
Dew Point 32 °F
Humidity 98%
Rainfall 0.00 in
Snow Depth Not available.
UV 0 out of 12
Pollen .10 out of 12
Air Quality Not available.
Flu Activity Not available.
METAR KCAD 221534Z AUTO 21014G18KT 1 1/4SM BR OVC003 00/00 A2988 RMK AO2 T00060003

More Conditions Fewer Conditions

Nowcast | as of 10:00 am EST on November 22, 2014

Freezing Rain Advisory in effect until noon EST today... At 11 am...cloudy. Occasional drizzle. Temperature 34. Southwest winds 15 mph. At 1 PM...cloudy. Occasional drizzle. Temperature 36. Southwest winds 14 mph. At 3 PM...cloudy. Occasional drizzle. Temperature 37. Southwest winds 14 mph. At 5 PM...cloudy. Areas of fog. Occasional drizzle. Temperature 38. Southwest winds 11 mph.

×

10-Day Weather Forecast

Almanac

Astronomy

Nov. 22, 2014 Rise Set
Actual Time
Civil Twilight
Nautical Twilight
Astronomical Twilight
Moon
Length of Visible Light
Length of Day
Tomorrow will be .
, % of the Moon is Illuminated

Today's Extremes

State Highs State Lows

Community

WunderPhotos

Upload Photos

1,772,835 photos uploaded!

WunderBlogs® & News

Nearby

Air Quality

  Air Quality AQ Index Pollutant
Not available.

Snow Depth

Station Depth Elevation

Earthquake Activity

City Distance Mag. Time & Date
Minimum magnitude displayed is 2.5.

Coastal Water Temperatures

Place Temperature

Nearby Weather Stations